createdAt,value
2019-04-16T00:02:11.130Z,13.60
2019-04-16T00:04:47.243Z,13.97
2019-04-16T00:07:35.376Z,16.10
2019-04-16T00:10:07.373Z,13.40
2019-04-16T00:12:55.597Z,12.10
2019-04-16T00:15:24.011Z,15.07
2019-04-16T00:17:52.425Z,14.43
2019-04-16T00:20:20.824Z,14.00
2019-04-16T00:22:59.944Z,15.60
2019-04-16T00:25:28.496Z,17.20
2019-04-16T00:27:59.556Z,13.13
2019-04-16T00:30:27.031Z,13.80
2019-04-16T00:32:55.825Z,13.43
2019-04-16T00:35:24.219Z,14.73
2019-04-16T00:37:52.617Z,14.23
2019-04-16T00:40:21.038Z,17.17
2019-04-16T00:42:49.433Z,20.53
2019-04-16T00:45:17.917Z,15.10
2019-04-16T00:47:48.022Z,15.17
2019-04-16T00:50:16.460Z,12.10
2019-04-16T00:52:44.871Z,14.70
2019-04-16T00:55:14.671Z,12.33
2019-04-16T00:57:43.329Z,14.80
2019-04-16T01:00:11.993Z,14.13
2019-04-16T01:02:40.410Z,16.00
2019-04-16T01:05:09.086Z,15.73
2019-04-16T01:07:37.543Z,16.73
2019-04-16T01:10:06.175Z,15.43
2019-04-16T01:12:34.583Z,16.43
2019-04-16T01:15:02.985Z,15.93
2019-04-16T01:17:33.475Z,13.00
2019-04-16T01:20:01.528Z,13.90
2019-04-16T01:22:29.929Z,15.00
2019-04-16T01:24:58.360Z,18.50
2019-04-16T01:27:31.081Z,15.40
2019-04-16T01:29:59.610Z,16.50
2019-04-16T01:32:44.940Z,18.27
2019-04-16T01:35:30.072Z,16.70
2019-04-16T01:38:16.441Z,15.30
2019-04-16T01:40:52.435Z,13.97
2019-04-16T01:43:25.540Z,15.93
2019-04-16T01:45:50.964Z,16.03
2019-04-16T01:48:19.382Z,13.00
2019-04-16T01:50:47.783Z,15.67
2019-04-16T01:53:18.313Z,13.50
2019-04-16T01:55:46.414Z,17.50
2019-04-16T01:58:14.848Z,15.20
2019-04-16T02:00:43.225Z,14.20
2019-04-16T02:03:11.700Z,16.07
2019-04-16T02:05:40.192Z,15.60
2019-04-16T02:08:08.670Z,15.73
2019-04-16T02:10:38.326Z,21.03
2019-04-16T02:13:07.226Z,18.40
2019-04-16T02:15:35.655Z,14.47
2019-04-16T02:18:04.193Z,19.00
2019-04-16T02:20:32.611Z,14.67
2019-04-16T02:23:01.152Z,15.20
2019-04-16T02:25:29.495Z,13.80
2019-04-16T02:27:57.912Z,14.67
2019-04-16T02:30:26.361Z,17.17
2019-04-16T02:32:54.736Z,21.03
2019-04-16T02:35:23.146Z,14.33
2019-04-16T02:37:51.560Z,17.50
2019-04-16T02:40:20.090Z,15.23
2019-04-16T02:42:48.527Z,17.03
2019-04-16T02:45:22.964Z,15.60
2019-04-16T02:47:47.146Z,19.33
2019-04-16T02:50:17.347Z,19.17
2019-04-16T02:52:52.326Z,15.47
2019-04-16T02:55:28.092Z,14.90
2019-04-16T02:58:01.903Z,17.93
2019-04-16T03:00:35.372Z,16.63
2019-04-16T03:03:07.837Z,14.27
2019-04-16T03:05:37.964Z,14.10
2019-04-16T03:08:06.454Z,20.03
2019-04-16T03:10:34.971Z,16.50
2019-04-16T03:13:03.443Z,15.60
2019-04-16T03:15:49.335Z,18.53
2019-04-16T03:18:19.384Z,18.00
2019-04-16T03:20:47.899Z,19.53
2019-04-16T03:23:16.312Z,16.60
2019-04-16T03:25:45.180Z,17.47
2019-04-16T03:28:14.272Z,15.50
2019-04-16T03:30:42.963Z,20.17
2019-04-16T03:33:14.255Z,15.27
2019-04-16T03:35:41.602Z,17.93
2019-04-16T03:38:10.011Z,18.27
2019-04-16T03:40:38.421Z,15.93
2019-04-16T03:43:06.886Z,15.60
2019-04-16T03:45:37.478Z,15.23
2019-04-16T03:48:05.439Z,15.03
2019-04-16T03:50:33.839Z,18.87
2019-04-16T03:53:02.247Z,19.20
2019-04-16T03:55:30.656Z,14.20
2019-04-16T03:57:59.056Z,17.30
2019-04-16T04:00:27.545Z,16.33
2019-04-16T04:02:55.945Z,16.87
2019-04-16T04:05:24.339Z,23.07
2019-04-16T04:07:55.481Z,15.37
2019-04-16T04:10:30.809Z,18.30
2019-04-16T04:12:54.481Z,16.60
2019-04-16T04:15:25.996Z,15.53
2019-04-16T04:17:53.108Z,12.67
2019-04-16T04:20:21.525Z,14.70
2019-04-16T04:22:49.996Z,17.60
2019-04-16T04:25:18.409Z,16.97
2019-04-16T04:27:47.757Z,17.23
2019-04-16T04:30:18.669Z,17.37
2019-04-16T04:32:47.725Z,18.13
2019-04-16T04:35:20.549Z,13.10
2019-04-16T04:37:46.504Z,19.20
2019-04-16T04:40:15.878Z,17.30
2019-04-16T04:42:45.054Z,14.43
2019-04-16T04:45:13.524Z,15.17
2019-04-16T04:47:41.938Z,17.23
2019-04-16T04:50:10.792Z,17.50
2019-04-16T04:52:39.216Z,15.40
2019-04-16T04:55:07.861Z,16.10
2019-04-16T04:57:36.301Z,19.63
2019-04-16T05:00:08.472Z,20.13
2019-04-16T05:02:37.391Z,14.97
2019-04-16T05:05:08.837Z,15.27
2019-04-16T05:07:37.210Z,18.13
2019-04-16T05:10:08.312Z,21.43
2019-04-16T05:12:37.065Z,16.50
2019-04-16T05:15:08.657Z,20.70
2019-04-16T05:17:38.611Z,14.50
2019-04-16T05:20:07.707Z,16.97
2019-04-16T05:22:36.123Z,19.20
2019-04-16T05:25:05.573Z,16.60
2019-04-16T05:27:33.992Z,21.70
2019-04-16T05:30:02.465Z,16.47
2019-04-16T05:32:33.998Z,17.20
2019-04-16T05:35:00.990Z,15.27
2019-04-16T05:37:29.421Z,18.73
2019-04-16T05:39:58.821Z,16.20
2019-04-16T05:42:28.150Z,19.53
2019-04-16T05:44:56.613Z,15.73
2019-04-16T05:47:25.190Z,16.70
2019-04-16T05:49:54.412Z,20.10
2019-04-16T05:52:23.794Z,16.17
2019-04-16T05:54:56.508Z,25.57
2019-04-16T05:57:27.491Z,19.17
2019-04-16T05:59:56.052Z,21.17
2019-04-16T06:02:26.196Z,22.00
2019-04-16T06:04:55.865Z,24.73
2019-04-16T06:07:24.718Z,18.30
2019-04-16T06:09:53.148Z,21.50
2019-04-16T06:12:23.180Z,22.17
2019-04-16T06:14:59.025Z,22.70
2019-04-16T06:17:32.824Z,20.07
2019-04-16T06:20:18.998Z,26.60
2019-04-16T06:22:49.296Z,18.40
2019-04-16T06:25:28.520Z,24.90
2019-04-16T06:28:01.541Z,32.80
2019-04-16T06:30:37.362Z,21.93
2019-04-16T06:33:15.901Z,20.13
2019-04-16T06:35:54.643Z,27.83
2019-04-16T06:38:33.799Z,23.73
2019-04-16T06:41:19.975Z,22.07
2019-04-16T06:43:58.293Z,24.63
2019-04-16T06:46:29.543Z,21.20
2019-04-16T06:49:18.883Z,21.27
2019-04-16T06:52:01.098Z,20.47
2019-04-16T06:54:45.483Z,20.20
2019-04-16T06:57:15.005Z,21.90
2019-04-16T07:00:02.410Z,22.10
2019-04-16T07:02:37.270Z,20.13
2019-04-16T07:05:04.823Z,18.93
2019-04-16T07:07:39.862Z,19.83
2019-04-16T07:10:07.424Z,29.23
2019-04-16T07:12:38.427Z,19.63
2019-04-16T07:15:09.215Z,22.50
2019-04-16T07:17:40.327Z,20.70
2019-04-16T07:20:13.029Z,20.77
2019-04-16T07:22:39.798Z,17.60
2019-04-16T07:25:08.380Z,22.67
2019-04-16T07:27:44.021Z,50.37
2019-04-16T07:30:20.860Z,23.63
2019-04-16T07:33:07.535Z,18.13
2019-04-16T07:35:55.663Z,21.90
2019-04-16T07:38:35.198Z,22.43
2019-04-16T07:41:23.106Z,21.63
2019-04-16T07:44:10.996Z,20.57
2019-04-16T07:46:47.120Z,20.73
2019-04-16T07:49:35.406Z,38.33
2019-04-16T07:52:12.253Z,25.93
2019-04-16T07:54:45.468Z,29.27
2019-04-16T07:57:13.903Z,21.10
2019-04-16T07:59:42.322Z,20.30
2019-04-16T08:02:10.819Z,17.67
2019-04-16T08:04:39.222Z,22.50
2019-04-16T08:07:07.653Z,19.60
2019-04-16T08:09:36.126Z,18.77
2019-04-16T08:12:04.871Z,20.17
2019-04-16T08:14:34.746Z,19.67
2019-04-16T08:17:03.231Z,21.67
2019-04-16T08:19:37.242Z,21.07
2019-04-16T08:22:01.865Z,22.60
2019-04-16T08:24:31.964Z,20.70
2019-04-16T08:27:00.370Z,24.80
2019-04-16T08:29:29.080Z,21.00
2019-04-16T08:31:57.497Z,20.13
2019-04-16T08:34:25.926Z,25.13
2019-04-16T08:36:54.451Z,23.00
2019-04-16T08:39:22.925Z,33.73
2019-04-16T08:41:52.509Z,23.23
2019-04-16T08:44:21.521Z,24.40
2019-04-16T08:46:49.926Z,18.40
2019-04-16T08:49:22.070Z,19.90
2019-04-16T08:51:48.510Z,37.00
2019-04-16T08:54:18.281Z,29.77
2019-04-16T08:56:47.273Z,21.57
2019-04-16T08:59:15.701Z,34.80
2019-04-16T09:01:44.174Z,22.57
2019-04-16T09:04:12.682Z,22.97
2019-04-16T09:06:42.701Z,26.00
2019-04-16T09:09:18.517Z,21.60
2019-04-16T09:11:48.578Z,25.30
2019-04-16T09:14:20.930Z,74.03
2019-04-16T09:17:04.653Z,19.00
2019-04-16T09:19:33.597Z,27.03
2019-04-16T09:22:02.022Z,21.13
2019-04-16T09:24:32.173Z,19.30
2019-04-16T09:27:13.410Z,23.87
2019-04-16T09:29:59.218Z,22.40
2019-04-16T09:32:29.362Z,20.17
2019-04-16T09:35:09.847Z,19.97
2019-04-16T09:37:52.040Z,20.23
2019-04-16T09:40:27.915Z,18.70
2019-04-16T09:42:57.027Z,31.40
2019-04-16T09:45:25.601Z,18.87
2019-04-16T09:47:54.036Z,22.63
2019-04-16T09:50:22.651Z,17.63
2019-04-16T09:52:52.422Z,23.40
2019-04-16T09:55:21.185Z,20.80
2019-04-16T09:57:49.624Z,16.40
2019-04-16T10:00:32.118Z,19.97
2019-04-16T10:03:14.506Z,20.97
2019-04-16T10:05:42.911Z,17.07
2019-04-16T10:08:12.601Z,17.00
2019-04-16T10:10:41.761Z,19.93
2019-04-16T10:13:10.221Z,17.00
2019-04-16T10:15:38.608Z,18.13
2019-04-16T10:18:07.144Z,18.60
2019-04-16T10:20:35.544Z,21.40
2019-04-16T10:23:05.611Z,21.33
2019-04-16T10:25:34.007Z,18.97
2019-04-16T10:28:05.063Z,20.23
2019-04-16T10:30:38.684Z,22.40
2019-04-16T10:33:07.163Z,19.47
2019-04-16T10:35:35.580Z,17.80
2019-04-16T10:38:05.701Z,19.13
2019-04-16T10:40:35.818Z,20.63
2019-04-16T10:43:21.146Z,20.47
2019-04-16T10:45:54.300Z,16.80
2019-04-16T10:48:30.093Z,22.17
2019-04-16T10:51:00.231Z,16.77
2019-04-16T10:53:36.300Z,17.17
2019-04-16T10:56:06.447Z,21.97
2019-04-16T10:58:52.880Z,19.67
2019-04-16T11:01:29.894Z,17.93
2019-04-16T11:04:14.147Z,18.10
2019-04-16T11:06:44.211Z,18.33
2019-04-16T11:09:12.641Z,19.10
2019-04-16T11:11:41.156Z,15.20
2019-04-16T11:14:09.612Z,19.23
2019-04-16T11:16:39.892Z,24.30
2019-04-16T11:19:08.378Z,16.70
2019-04-16T11:21:36.787Z,17.03
2019-04-16T11:24:05.207Z,16.63
2019-04-16T11:26:33.680Z,15.67
2019-04-16T11:29:02.114Z,20.57
2019-04-16T11:31:30.709Z,15.60
2019-04-16T11:33:59.108Z,14.87
2019-04-16T11:36:30.642Z,18.37
2019-04-16T11:38:57.676Z,14.97
2019-04-16T11:41:26.271Z,18.47
2019-04-16T11:43:54.699Z,13.87
2019-04-16T11:46:23.140Z,17.73
2019-04-16T11:48:51.605Z,14.80
2019-04-16T11:51:20.060Z,12.70
2019-04-16T11:53:48.579Z,11.97
2019-04-16T11:56:16.989Z,11.00
2019-04-16T11:58:46.384Z,11.57
2019-04-16T12:01:35.285Z,13.93
2019-04-16T12:04:05.487Z,11.20
2019-04-16T12:06:35.552Z,17.67
2019-04-16T12:09:16.107Z,11.33
2019-04-16T12:11:49.051Z,14.30
2019-04-16T12:14:30.743Z,13.47
2019-04-16T12:16:53.935Z,9.87
2019-04-16T12:19:33.225Z,10.37
2019-04-16T12:22:21.354Z,11.30
2019-04-16T12:25:06.484Z,11.90
2019-04-16T12:27:36.670Z,11.43
2019-04-16T12:30:14.200Z,9.40
2019-04-16T12:32:47.328Z,10.80
2019-04-16T12:35:22.997Z,16.33
2019-04-16T12:38:05.235Z,13.20
2019-04-16T12:40:42.341Z,11.07
2019-04-16T12:43:18.630Z,10.03
2019-04-16T12:46:00.662Z,12.20
2019-04-16T12:48:39.962Z,14.17
2019-04-16T12:51:10.059Z,12.63
2019-04-16T12:53:53.420Z,11.30
2019-04-16T12:56:41.270Z,12.27
2019-04-16T12:59:11.456Z,11.83
2019-04-16T13:01:53.680Z,14.03
2019-04-16T13:04:39.907Z,13.90
2019-04-16T13:07:25.844Z,12.67
2019-04-16T13:09:55.889Z,14.47
2019-04-16T13:12:25.955Z,16.93
2019-04-16T13:15:12.409Z,18.60
2019-04-16T13:17:50.804Z,14.37
2019-04-16T13:20:36.811Z,16.07
2019-04-16T13:23:15.813Z,13.30
2019-04-16T13:25:57.647Z,16.03
2019-04-16T13:28:26.025Z,15.53
2019-04-16T13:30:54.449Z,13.90
2019-04-16T13:33:22.859Z,14.37
2019-04-16T13:35:51.268Z,13.03
2019-04-16T13:38:21.338Z,16.53
2019-04-16T13:40:50.215Z,18.57
2019-04-16T13:43:27.347Z,14.13
2019-04-16T13:45:58.093Z,15.03
2019-04-16T13:48:43.165Z,16.53
2019-04-16T13:51:18.493Z,19.83
2019-04-16T13:53:54.114Z,16.27
2019-04-16T13:56:24.188Z,21.73
2019-04-16T13:58:56.083Z,21.20
2019-04-16T14:01:26.101Z,19.97
2019-04-16T14:03:56.368Z,18.93
2019-04-16T14:06:24.661Z,19.90
2019-04-16T14:08:53.157Z,20.83
2019-04-16T14:11:21.702Z,20.73
2019-04-16T14:13:50.365Z,20.73
2019-04-16T14:16:18.762Z,18.03
2019-04-16T14:18:47.167Z,23.83
2019-04-16T14:21:15.634Z,19.40
2019-04-16T14:23:44.056Z,21.07
2019-04-16T14:26:12.477Z,23.40
2019-04-16T14:28:51.745Z,20.70
2019-04-16T14:31:16.564Z,19.53
2019-04-16T14:33:55.101Z,18.10
2019-04-16T14:36:23.518Z,17.47
2019-04-16T14:38:53.651Z,20.03
2019-04-16T14:41:22.078Z,18.37
2019-04-16T14:44:04.107Z,15.77
2019-04-16T14:46:32.541Z,10.23
2019-04-16T14:49:00.969Z,9.77
2019-04-16T14:51:29.392Z,12.87
2019-04-16T14:54:11.443Z,13.67
2019-04-16T14:56:41.575Z,13.73
2019-04-16T14:59:29.966Z,11.33
2019-04-16T15:01:46.189Z,10.07
2019-04-16T15:04:16.323Z,10.80
2019-04-16T15:06:52.764Z,14.17
2019-04-16T15:09:35.853Z,9.87
2019-04-16T15:12:08.391Z,11.93
2019-04-16T15:14:37.934Z,10.73
2019-04-16T15:17:08.019Z,11.73
2019-04-16T15:19:43.977Z,16.80
2019-04-16T15:22:29.091Z,11.50
2019-04-16T15:25:14.126Z,11.63
2019-04-16T15:27:53.241Z,11.07
2019-04-16T15:30:29.383Z,11.47
2019-04-16T15:33:14.763Z,13.73
2019-04-16T15:35:46.597Z,12.43
2019-04-16T15:38:26.588Z,11.80
2019-04-16T15:40:57.055Z,11.73
2019-04-16T15:43:32.884Z,11.70
2019-04-16T15:46:25.282Z,11.33
2019-04-16T15:48:40.818Z,15.60
2019-04-16T15:51:19.668Z,10.77
2019-04-16T15:53:50.512Z,31.83
2019-04-16T15:56:21.387Z,21.23
2019-04-16T15:58:54.113Z,9.63
2019-04-16T16:01:24.185Z,11.00
2019-04-16T16:04:09.445Z,13.63
2019-04-16T16:06:39.745Z,10.70
2019-04-16T16:09:18.710Z,9.50
2019-04-16T16:11:51.930Z,13.67
2019-04-16T16:14:20.391Z,25.93
2019-04-16T16:16:50.763Z,16.70
2019-04-16T16:19:18.960Z,9.23
2019-04-16T16:21:47.364Z,9.73
2019-04-16T16:24:15.781Z,10.30
2019-04-16T16:26:44.178Z,14.60
2019-04-16T16:29:12.715Z,14.20
2019-04-16T16:31:41.121Z,18.00
2019-04-16T16:34:09.661Z,10.60
2019-04-16T16:36:40.643Z,7.17
2019-04-16T16:39:08.172Z,10.10
2019-04-16T16:41:36.592Z,10.60
2019-04-16T16:44:05.131Z,10.07
2019-04-16T16:46:57.286Z,9.53
2019-04-16T16:49:23.518Z,10.37
2019-04-16T16:52:11.362Z,15.33
2019-04-16T16:54:40.929Z,7.83
2019-04-16T16:57:13.997Z,5.53
2019-04-16T16:59:46.813Z,5.60
2019-04-16T17:02:16.917Z,5.40
2019-04-16T17:04:47.137Z,8.87
2019-04-16T17:07:17.679Z,7.03
2019-04-16T17:09:45.815Z,6.83
2019-04-16T17:12:14.303Z,6.03
2019-04-16T17:14:42.801Z,5.77
2019-04-16T17:17:14.721Z,6.10
2019-04-16T17:19:41.501Z,6.87
2019-04-16T17:22:09.989Z,5.90
2019-04-16T17:24:38.466Z,5.13
2019-04-16T17:27:07.084Z,6.40
2019-04-16T17:29:35.483Z,5.50
2019-04-16T17:32:04.055Z,12.03
2019-04-16T17:34:38.527Z,4.33
2019-04-16T17:37:02.605Z,3.70
2019-04-16T17:39:32.694Z,17.50
2019-04-16T17:42:05.682Z,4.70
2019-04-16T17:44:38.903Z,5.10
2019-04-16T17:47:31.292Z,3.20
2019-04-16T17:50:03.697Z,2.57
2019-04-16T17:52:45.324Z,4.83
2019-04-16T17:55:15.420Z,3.17
2019-04-16T17:57:47.956Z,3.80
2019-04-16T18:00:34.705Z,5.60
2019-04-16T18:03:05.262Z,2.63
2019-04-16T18:05:44.213Z,6.10
2019-04-16T18:08:30.488Z,2.90
2019-04-16T18:11:00.539Z,2.73
2019-04-16T18:13:36.796Z,3.00
2019-04-16T18:16:06.867Z,7.37
2019-04-16T18:18:39.428Z,6.13
2019-04-16T18:21:24.817Z,4.00
2019-04-16T18:24:00.888Z,2.80
2019-04-16T18:26:31.030Z,2.30
2019-04-16T18:29:17.153Z,3.33
2019-04-16T18:31:52.475Z,8.30
2019-04-16T18:34:24.235Z,4.00
2019-04-16T18:37:00.590Z,2.50
2019-04-16T18:39:37.408Z,4.07
2019-04-16T18:42:11.266Z,5.67
2019-04-16T18:44:51.331Z,5.17
2019-04-16T18:47:22.013Z,7.70
2019-04-16T18:49:52.425Z,3.90
2019-04-16T18:52:20.976Z,5.47
2019-04-16T18:54:50.013Z,4.37
2019-04-16T18:57:18.521Z,4.73
2019-04-16T18:59:46.956Z,5.13
2019-04-16T19:02:15.358Z,9.97
2019-04-16T19:04:43.822Z,23.67
2019-04-16T19:07:12.228Z,3.07
2019-04-16T19:09:40.621Z,2.13
2019-04-16T19:12:09.183Z,4.37
2019-04-16T19:14:37.767Z,1.83
2019-04-16T19:17:06.429Z,2.40
2019-04-16T19:19:34.930Z,3.63
2019-04-16T19:22:03.709Z,4.27
2019-04-16T19:24:32.301Z,24.03
2019-04-16T19:27:00.765Z,10.43
2019-04-16T19:29:29.329Z,4.10
2019-04-16T19:31:57.828Z,3.03
2019-04-16T19:34:26.336Z,1.60
2019-04-16T19:36:55.914Z,2.17
2019-04-16T19:39:25.046Z,2.80
2019-04-16T19:41:57.494Z,20.13
2019-04-16T19:44:23.866Z,17.57
2019-04-16T19:46:54.240Z,5.90
2019-04-16T19:49:23.027Z,3.00
2019-04-16T19:51:51.739Z,6.60
2019-04-16T19:54:20.412Z,4.30
2019-04-16T19:56:51.345Z,3.27
2019-04-16T19:59:19.442Z,2.00
2019-04-16T20:01:48.210Z,3.07
2019-04-16T20:04:16.813Z,3.13
2019-04-16T20:06:45.465Z,3.27
2019-04-16T20:09:13.967Z,5.50
2019-04-16T20:11:42.389Z,3.73
2019-04-16T20:14:10.819Z,4.13
2019-04-16T20:16:39.257Z,5.57
2019-04-16T20:19:07.795Z,3.00
2019-04-16T20:21:37.929Z,5.30
2019-04-16T20:24:06.649Z,6.40
2019-04-16T20:26:35.160Z,3.70
2019-04-16T20:29:03.688Z,4.43
2019-04-16T20:31:35.026Z,3.10
2019-04-16T20:34:03.488Z,4.63
2019-04-16T20:36:32.057Z,3.37
2019-04-16T20:39:00.473Z,3.13
2019-04-16T20:41:28.874Z,3.90
2019-04-16T20:43:57.318Z,7.50
2019-04-16T20:46:25.742Z,5.00
2019-04-16T20:49:06.454Z,5.40
2019-04-16T20:51:26.533Z,4.07
2019-04-16T20:53:54.794Z,2.77
2019-04-16T20:56:23.181Z,2.33
2019-04-16T20:58:51.612Z,4.50
2019-04-16T21:01:33.002Z,2.13
2019-04-16T21:04:04.681Z,5.57
2019-04-16T21:06:29.380Z,2.47
2019-04-16T21:08:58.294Z,2.93
2019-04-16T21:11:26.923Z,2.80
2019-04-16T21:13:55.307Z,3.60
2019-04-16T21:16:23.718Z,4.67
2019-04-16T21:18:52.130Z,3.70
2019-04-16T21:21:23.386Z,4.13
2019-04-16T21:23:50.706Z,9.03
2019-04-16T21:26:19.932Z,6.50
2019-04-16T21:29:05.167Z,3.33
2019-04-16T21:31:42.321Z,3.90
2019-04-16T21:34:12.814Z,5.30
2019-04-16T21:36:51.667Z,5.00
2019-04-16T21:39:30.526Z,3.30
2019-04-16T21:42:02.395Z,3.93
2019-04-16T21:44:29.067Z,4.20
2019-04-16T21:46:58.305Z,3.80
2019-04-16T21:49:38.561Z,3.17
2019-04-16T21:52:08.888Z,4.97
2019-04-16T21:54:39.238Z,5.00
2019-04-16T21:57:09.850Z,4.23
2019-04-16T21:59:38.102Z,4.50
2019-04-16T22:02:24.647Z,3.30
2019-04-16T22:04:53.189Z,4.40
2019-04-16T22:07:24.680Z,4.03
2019-04-16T22:09:51.814Z,4.57
2019-04-16T22:12:20.295Z,3.63
2019-04-16T22:14:50.911Z,7.30
2019-04-16T22:17:18.875Z,6.53
2019-04-16T22:19:54.304Z,9.40
2019-04-16T22:22:17.448Z,4.00
2019-04-16T22:24:45.845Z,6.27
2019-04-16T22:27:14.278Z,7.17
2019-04-16T22:29:47.277Z,5.00
2019-04-16T22:32:12.840Z,3.67
2019-04-16T22:34:41.339Z,3.50
2019-04-16T22:37:09.758Z,4.63
2019-04-16T22:39:56.535Z,3.03
2019-04-16T22:42:41.932Z,3.97
2019-04-16T22:45:14.899Z,4.07
2019-04-16T22:47:44.962Z,3.43
2019-04-16T22:50:16.847Z,3.30
2019-04-16T22:52:44.969Z,5.40
2019-04-16T22:55:13.708Z,4.93
2019-04-16T22:57:42.111Z,6.20
2019-04-16T23:00:13.109Z,5.87
2019-04-16T23:02:41.601Z,7.00
2019-04-16T23:05:10.085Z,5.90
2019-04-16T23:07:39.670Z,4.80
2019-04-16T23:10:08.779Z,4.77
2019-04-16T23:12:37.190Z,6.17
2019-04-16T23:15:08.121Z,8.97
2019-04-16T23:17:36.532Z,5.50
2019-04-16T23:20:06.191Z,5.00
2019-04-16T23:22:34.786Z,6.80
2019-04-16T23:25:03.393Z,4.90
2019-04-16T23:27:37.174Z,3.80
2019-04-16T23:30:02.072Z,5.30
2019-04-16T23:32:30.538Z,5.63
2019-04-16T23:34:59.317Z,3.53
2019-04-16T23:37:27.647Z,3.80
2019-04-16T23:39:56.074Z,4.70
2019-04-16T23:42:24.502Z,4.60
2019-04-16T23:44:57.785Z,8.13
2019-04-16T23:47:26.327Z,6.30
2019-04-16T23:49:56.433Z,7.10
2019-04-16T23:52:35.504Z,4.53
2019-04-16T23:55:06.215Z,5.77
2019-04-16T23:57:38.977Z,5.40
